sensor_id;sensor_type;location;lat;lon;timestamp;pressure;altitude;pressure_sealevel;temperature;humidity
74615;BME280;63121;51.458;-0.110;2023-04-25T00:01:02;101386.22;;;9.43;59.97
74615;BME280;63121;51.458;-0.110;2023-04-25T00:03:28;101385.97;;;9.00;61.26
74615;BME280;63121;51.458;-0.110;2023-04-25T00:05:54;101386.72;;;8.82;61.55
74615;BME280;63121;51.458;-0.110;2023-04-25T00:08:21;101390.38;;;9.18;60.95
74615;BME280;63121;51.458;-0.110;2023-04-25T00:10:47;101385.16;;;9.07;60.64
74615;BME280;63121;51.458;-0.110;2023-04-25T00:13:14;101386.09;;;9.25;60.38
74615;BME280;63121;51.458;-0.110;2023-04-25T00:15:40;101375.66;;;9.00;60.69
74615;BME280;63121;51.458;-0.110;2023-04-25T00:18:07;101375.47;;;8.69;60.99
74615;BME280;63121;51.458;-0.110;2023-04-25T00:20:32;101375.66;;;8.94;60.34
74615;BME280;63121;51.458;-0.110;2023-04-25T00:22:57;101371.47;;;9.19;59.82
74615;BME280;63121;51.458;-0.110;2023-04-25T00:25:23;101381.69;;;9.02;59.93
74615;BME280;63121;51.458;-0.110;2023-04-25T00:27:48;101378.16;;;8.89;60.04
74615;BME280;63121;51.458;-0.110;2023-04-25T00:30:14;101385.03;;;8.87;60.63
74615;BME280;63121;51.458;-0.110;2023-04-25T00:32:39;101387.44;;;8.64;59.60
74615;BME280;63121;51.458;-0.110;2023-04-25T00:35:05;101395.78;;;8.39;60.98
74615;BME280;63121;51.458;-0.110;2023-04-25T00:37:31;101393.72;;;8.02;61.45
74615;BME280;63121;51.458;-0.110;2023-04-25T00:39:58;101397.84;;;7.86;61.63
74615;BME280;63121;51.458;-0.110;2023-04-25T00:42:25;101397.22;;;8.10;61.51
74615;BME280;63121;51.458;-0.110;2023-04-25T00:44:51;101403.22;;;8.08;61.93
74615;BME280;63121;51.458;-0.110;2023-04-25T00:47:17;101399.88;;;8.17;60.96
74615;BME280;63121;51.458;-0.110;2023-04-25T00:49:42;101400.75;;;8.22;61.05
74615;BME280;63121;51.458;-0.110;2023-04-25T00:52:08;101404.41;;;7.63;61.66
74615;BME280;63121;51.458;-0.110;2023-04-25T00:54:33;101397.13;;;8.00;60.43
74615;BME280;63121;51.458;-0.110;2023-04-25T00:56:59;101399.66;;;7.95;60.99
74615;BME280;63121;51.458;-0.110;2023-04-25T00:59:26;101412.31;;;7.80;60.59
74615;BME280;63121;51.458;-0.110;2023-04-25T01:01:52;101409.81;;;7.86;60.79
74615;BME280;63121;51.458;-0.110;2023-04-25T01:04:18;101415.72;;;7.77;60.70
74615;BME280;63121;51.458;-0.110;2023-04-25T01:06:43;101411.47;;;7.79;61.16
74615;BME280;63121;51.458;-0.110;2023-04-25T01:09:09;101413.63;;;7.45;61.68
74615;BME280;63121;51.458;-0.110;2023-04-25T01:11:34;101412.03;;;7.57;61.35
74615;BME280;63121;51.458;-0.110;2023-04-25T01:14:00;101408.66;;;7.61;62.24
74615;BME280;63121;51.458;-0.110;2023-04-25T01:16:27;101414.63;;;7.58;61.73
74615;BME280;63121;51.458;-0.110;2023-04-25T01:18:54;101407.91;;;7.69;60.85
74615;BME280;63121;51.458;-0.110;2023-04-25T01:21:19;101418.38;;;7.83;61.06
74615;BME280;63121;51.458;-0.110;2023-04-25T01:23:45;101422.09;;;7.38;61.83
74615;BME280;63121;51.458;-0.110;2023-04-25T01:26:11;101417.22;;;7.60;62.77
74615;BME280;63121;51.458;-0.110;2023-04-25T01:28:37;101410.47;;;7.68;61.33
74615;BME280;63121;51.458;-0.110;2023-04-25T01:31:04;101405.44;;;7.77;60.44
74615;BME280;63121;51.458;-0.110;2023-04-25T01:33:31;101407.66;;;7.48;61.65
74615;BME280;63121;51.458;-0.110;2023-04-25T01:35:56;101411.16;;;7.53;61.80
74615;BME280;63121;51.458;-0.110;2023-04-25T01:38:21;101417.19;;;7.57;61.11
74615;BME280;63121;51.458;-0.110;2023-04-25T01:40:48;101416.41;;;7.62;60.63
74615;BME280;63121;51.458;-0.110;2023-04-25T01:43:14;101417.16;;;7.53;60.81
74615;BME280;63121;51.458;-0.110;2023-04-25T01:45:40;101415.81;;;7.18;61.31
74615;BME280;63121;51.458;-0.110;2023-04-25T01:48:07;101418.59;;;7.33;61.65
74615;BME280;63121;51.458;-0.110;2023-04-25T01:50:33;101421.81;;;7.18;61.89
74615;BME280;63121;51.458;-0.110;2023-04-25T01:52:58;101421.44;;;7.54;60.91
74615;BME280;63121;51.458;-0.110;2023-04-25T01:55:23;101438.31;;;7.34;61.37
74615;BME280;63121;51.458;-0.110;2023-04-25T01:57:49;101439.19;;;7.38;61.57
74615;BME280;63121;51.458;-0.110;2023-04-25T02:00:14;101429.94;;;7.50;60.74
74615;BME280;63121;51.458;-0.110;2023-04-25T02:02:40;101427.97;;;7.29;61.54
74615;BME280;63121;51.458;-0.110;2023-04-25T02:05:06;101437.88;;;7.05;61.65
74615;BME280;63121;51.458;-0.110;2023-04-25T02:07:32;101435.72;;;7.32;60.64
74615;BME280;63121;51.458;-0.110;2023-04-25T02:09:57;101433.72;;;7.15;62.10
74615;BME280;63121;51.458;-0.110;2023-04-25T02:12:22;101429.81;;;7.40;61.25
74615;BME280;63121;51.458;-0.110;2023-04-25T02:14:48;101434.16;;;7.42;60.98
74615;BME280;63121;51.458;-0.110;2023-04-25T02:17:13;101438.84;;;7.11;61.78
74615;BME280;63121;51.458;-0.110;2023-04-25T02:19:39;101446.75;;;6.70;61.97
74615;BME280;63121;51.458;-0.110;2023-04-25T02:22:04;101442.78;;;6.89;61.60
74615;BME280;63121;51.458;-0.110;2023-04-25T02:24:30;101443.38;;;7.31;61.06
74615;BME280;63121;51.458;-0.110;2023-04-25T02:26:56;101453.09;;;6.92;61.94
74615;BME280;63121;51.458;-0.110;2023-04-25T02:29:23;101454.63;;;6.83;62.65
74615;BME280;63121;51.458;-0.110;2023-04-25T02:31:48;101447.34;;;7.07;61.70
74615;BME280;63121;51.458;-0.110;2023-04-25T02:34:13;101455.47;;;6.80;61.63
74615;BME280;63121;51.458;-0.110;2023-04-25T02:36:39;101447.94;;;6.91;61.60
74615;BME280;63121;51.458;-0.110;2023-04-25T02:39:04;101448.63;;;6.81;62.15
74615;BME280;63121;51.458;-0.110;2023-04-25T02:41:30;101447.13;;;6.94;60.80
74615;BME280;63121;51.458;-0.110;2023-04-25T02:43:55;101449.06;;;7.08;61.45
74615;BME280;63121;51.458;-0.110;2023-04-25T02:46:20;101444.84;;;7.13;61.34
74615;BME280;63121;51.458;-0.110;2023-04-25T02:48:46;101453.16;;;6.97;61.68
74615;BME280;63121;51.458;-0.110;2023-04-25T02:51:11;101451.78;;;6.64;61.50
74615;BME280;63121;51.458;-0.110;2023-04-25T02:53:37;101453.69;;;6.75;61.54
74615;BME280;63121;51.458;-0.110;2023-04-25T02:56:02;101451.69;;;6.58;62.17
74615;BME280;63121;51.458;-0.110;2023-04-25T02:58:28;101457.53;;;6.51;61.84
74615;BME280;63121;51.458;-0.110;2023-04-25T03:00:53;101456.03;;;6.62;61.93
74615;BME280;63121;51.458;-0.110;2023-04-25T03:03:19;101459.03;;;6.90;61.00
74615;BME280;63121;51.458;-0.110;2023-04-25T03:05:48;101469.03;;;6.73;60.83
74615;BME280;63121;51.458;-0.110;2023-04-25T03:08:14;101471.00;;;6.88;61.38
74615;BME280;63121;51.458;-0.110;2023-04-25T03:10:39;101460.94;;;7.00;61.21
74615;BME280;63121;51.458;-0.110;2023-04-25T03:13:05;101458.84;;;6.78;60.81
74615;BME280;63121;51.458;-0.110;2023-04-25T03:15:30;101450.50;;;6.91;60.75
74615;BME280;63121;51.458;-0.110;2023-04-25T03:17:56;101463.09;;;6.76;61.24
74615;BME280;63121;51.458;-0.110;2023-04-25T03:20:21;101461.75;;;6.99;60.42
74615;BME280;63121;51.458;-0.110;2023-04-25T03:22:47;101453.97;;;6.95;60.34
74615;BME280;63121;51.458;-0.110;2023-04-25T03:25:12;101460.47;;;7.29;60.04
74615;BME280;63121;51.458;-0.110;2023-04-25T03:27:37;101469.88;;;7.27;59.95
74615;BME280;63121;51.458;-0.110;2023-04-25T03:30:03;101468.06;;;6.68;60.69
74615;BME280;63121;51.458;-0.110;2023-04-25T03:32:29;101476.16;;;6.39;61.45
74615;BME280;63121;51.458;-0.110;2023-04-25T03:34:54;101474.38;;;6.87;60.13
74615;BME280;63121;51.458;-0.110;2023-04-25T03:37:20;101479.53;;;6.37;62.06
74615;BME280;63121;51.458;-0.110;2023-04-25T03:39:45;101484.25;;;6.64;60.77
74615;BME280;63121;51.458;-0.110;2023-04-25T03:42:11;101484.66;;;6.38;61.50
74615;BME280;63121;51.458;-0.110;2023-04-25T03:44:36;101482.63;;;6.20;61.84
74615;BME280;63121;51.458;-0.110;2023-04-25T03:47:01;101485.06;;;6.61;61.26
74615;BME280;63121;51.458;-0.110;2023-04-25T03:49:27;101484.72;;;6.41;61.95
74615;BME280;63121;51.458;-0.110;2023-04-25T03:51:52;101487.41;;;6.49;61.25
74615;BME280;63121;51.458;-0.110;2023-04-25T03:54:17;101490.50;;;6.78;60.90
74615;BME280;63121;51.458;-0.110;2023-04-25T03:56:43;101492.34;;;6.85;60.40
74615;BME280;63121;51.458;-0.110;2023-04-25T03:59:08;101491.34;;;6.79;60.84
74615;BME280;63121;51.458;-0.110;2023-04-25T04:01:33;101497.28;;;6.76;61.16
74615;BME280;63121;51.458;-0.110;2023-04-25T04:03:59;101499.53;;;7.06;60.14
74615;BME280;63121;51.458;-0.110;2023-04-25T04:06:25;101493.22;;;6.89;60.60
74615;BME280;63121;51.458;-0.110;2023-04-25T04:08:50;101503.72;;;7.01;59.95
74615;BME280;63121;51.458;-0.110;2023-04-25T04:11:15;101506.16;;;6.95;60.32
74615;BME280;63121;51.458;-0.110;2023-04-25T04:13:41;101509.56;;;6.44;61.22
74615;BME280;63121;51.458;-0.110;2023-04-25T04:16:06;101506.13;;;6.43;61.77
74615;BME280;63121;51.458;-0.110;2023-04-25T04:18:32;101507.56;;;6.76;60.51
74615;BME280;63121;51.458;-0.110;2023-04-25T04:20:58;101505.06;;;6.81;60.21
74615;BME280;63121;51.458;-0.110;2023-04-25T04:23:24;101508.38;;;6.28;61.63
74615;BME280;63121;51.458;-0.110;2023-04-25T04:25:49;101518.19;;;6.49;61.08
74615;BME280;63121;51.458;-0.110;2023-04-25T04:28:15;101520.69;;;6.44;60.37
74615;BME280;63121;51.458;-0.110;2023-04-25T04:30:41;101517.75;;;6.24;61.42
74615;BME280;63121;51.458;-0.110;2023-04-25T04:33:08;101525.19;;;6.12;61.73
74615;BME280;63121;51.458;-0.110;2023-04-25T04:35:33;101534.16;;;6.34;61.44
74615;BME280;63121;51.458;-0.110;2023-04-25T04:37:59;101534.53;;;6.54;60.92
74615;BME280;63121;51.458;-0.110;2023-04-25T04:40:24;101528.91;;;6.74;60.96
74615;BME280;63121;51.458;-0.110;2023-04-25T04:42:50;101543.84;;;6.06;61.49
74615;BME280;63121;51.458;-0.110;2023-04-25T04:45:16;101546.19;;;6.37;60.98
74615;BME280;63121;51.458;-0.110;2023-04-25T04:47:42;101558.03;;;6.76;60.67
74615;BME280;63121;51.458;-0.110;2023-04-25T04:50:09;101564.34;;;6.49;60.72
74615;BME280;63121;51.458;-0.110;2023-04-25T04:52:35;101567.22;;;6.20;60.96
74615;BME280;63121;51.458;-0.110;2023-04-25T04:55:02;101564.66;;;6.64;60.56
74615;BME280;63121;51.458;-0.110;2023-04-25T04:57:28;101564.50;;;7.02;59.48
74615;BME280;63121;51.458;-0.110;2023-04-25T04:59:54;101559.19;;;6.91;60.32
74615;BME280;63121;51.458;-0.110;2023-04-25T05:02:19;101557.56;;;6.51;60.43
74615;BME280;63121;51.458;-0.110;2023-04-25T05:04:45;101558.72;;;6.23;61.70
74615;BME280;63121;51.458;-0.110;2023-04-25T05:07:10;101558.56;;;6.15;61.52
74615;BME280;63121;51.458;-0.110;2023-04-25T05:09:36;101561.06;;;6.12;61.91
74615;BME280;63121;51.458;-0.110;2023-04-25T05:12:01;101554.75;;;5.96;61.91
74615;BME280;63121;51.458;-0.110;2023-04-25T05:14:27;101569.75;;;6.19;61.74
74615;BME280;63121;51.458;-0.110;2023-04-25T05:16:52;101580.59;;;6.07;62.45
74615;BME280;63121;51.458;-0.110;2023-04-25T05:19:17;101579.78;;;6.08;61.96
74615;BME280;63121;51.458;-0.110;2023-04-25T05:21:43;101589.28;;;6.12;62.09
74615;BME280;63121;51.458;-0.110;2023-04-25T05:24:08;101590.00;;;6.06;61.40
74615;BME280;63121;51.458;-0.110;2023-04-25T05:26:34;101601.16;;;6.51;60.94
74615;BME280;63121;51.458;-0.110;2023-04-25T05:28:59;101599.03;;;6.28;61.27
74615;BME280;63121;51.458;-0.110;2023-04-25T05:31:25;101610.94;;;6.28;61.33
74615;BME280;63121;51.458;-0.110;2023-04-25T05:33:52;101618.16;;;6.05;61.59
74615;BME280;63121;51.458;-0.110;2023-04-25T05:36:20;101621.00;;;6.60;60.23
74615;BME280;63121;51.458;-0.110;2023-04-25T05:38:46;101636.34;;;6.16;61.51
74615;BME280;63121;51.458;-0.110;2023-04-25T05:41:11;101630.69;;;6.30;61.26
74615;BME280;63121;51.458;-0.110;2023-04-25T05:43:37;101639.13;;;6.67;60.41
74615;BME280;63121;51.458;-0.110;2023-04-25T05:46:02;101642.81;;;6.00;61.56
74615;BME280;63121;51.458;-0.110;2023-04-25T05:48:27;101645.84;;;6.21;61.45
74615;BME280;63121;51.458;-0.110;2023-04-25T05:50:53;101636.09;;;6.44;60.50
74615;BME280;63121;51.458;-0.110;2023-04-25T05:53:20;101635.94;;;6.37;61.46
74615;BME280;63121;51.458;-0.110;2023-04-25T05:55:46;101634.19;;;6.36;61.04
74615;BME280;63121;51.458;-0.110;2023-04-25T05:58:11;101631.38;;;6.64;60.73
74615;BME280;63121;51.458;-0.110;2023-04-25T06:00:37;101631.91;;;6.48;60.49
74615;BME280;63121;51.458;-0.110;2023-04-25T06:03:03;101637.81;;;6.88;60.41
74615;BME280;63121;51.458;-0.110;2023-04-25T06:05:29;101638.63;;;6.85;59.71
74615;BME280;63121;51.458;-0.110;2023-04-25T06:07:54;101641.03;;;6.35;61.41
74615;BME280;63121;51.458;-0.110;2023-04-25T06:10:20;101643.63;;;6.37;61.00
74615;BME280;63121;51.458;-0.110;2023-04-25T06:12:45;101649.91;;;6.94;59.49
74615;BME280;63121;51.458;-0.110;2023-04-25T06:15:10;101641.22;;;6.88;59.65
74615;BME280;63121;51.458;-0.110;2023-04-25T06:17:36;101645.66;;;6.51;60.02
74615;BME280;63121;51.458;-0.110;2023-04-25T06:20:02;101646.59;;;7.01;58.56
74615;BME280;63121;51.458;-0.110;2023-04-25T06:22:28;101641.03;;;7.23;58.11
74615;BME280;63121;51.458;-0.110;2023-04-25T06:24:54;101652.84;;;7.67;56.98
74615;BME280;63121;51.458;-0.110;2023-04-25T06:27:22;101668.59;;;7.35;58.17
74615;BME280;63121;51.458;-0.110;2023-04-25T06:29:47;101661.81;;;7.39;58.93
74615;BME280;63121;51.458;-0.110;2023-04-25T06:32:13;101651.88;;;7.59;58.15
74615;BME280;63121;51.458;-0.110;2023-04-25T06:34:38;101660.28;;;7.48;57.65
74615;BME280;63121;51.458;-0.110;2023-04-25T06:37:03;101660.22;;;7.45;57.78
74615;BME280;63121;51.458;-0.110;2023-04-25T06:39:30;101649.69;;;7.83;56.36
74615;BME280;63121;51.458;-0.110;2023-04-25T06:41:55;101665.09;;;7.31;57.54
74615;BME280;63121;51.458;-0.110;2023-04-25T06:44:20;101656.88;;;8.06;56.52
74615;BME280;63121;51.458;-0.110;2023-04-25T06:46:48;101659.53;;;7.56;56.56
74615;BME280;63121;51.458;-0.110;2023-04-25T06:49:13;101667.78;;;7.36;57.22
74615;BME280;63121;51.458;-0.110;2023-04-25T06:51:38;101670.56;;;8.03;56.08
74615;BME280;63121;51.458;-0.110;2023-04-25T06:54:05;101671.63;;;7.63;56.74
74615;BME280;63121;51.458;-0.110;2023-04-25T06:56:31;101673.63;;;7.79;55.95
74615;BME280;63121;51.458;-0.110;2023-04-25T06:58:56;101680.72;;;7.96;56.06
74615;BME280;63121;51.458;-0.110;2023-04-25T07:01:21;101673.56;;;8.34;55.11
74615;BME280;63121;51.458;-0.110;2023-04-25T07:03:47;101675.41;;;8.43;55.35
74615;BME280;63121;51.458;-0.110;2023-04-25T07:06:12;101668.94;;;8.71;54.33
74615;BME280;63121;51.458;-0.110;2023-04-25T07:08:38;101671.31;;;8.57;54.67
74615;BME280;63121;51.458;-0.110;2023-04-25T07:11:03;101675.88;;;8.81;53.12
74615;BME280;63121;51.458;-0.110;2023-04-25T07:13:28;101689.50;;;8.69;53.69
74615;BME280;63121;51.458;-0.110;2023-04-25T07:15:54;101682.47;;;8.58;55.23
74615;BME280;63121;51.458;-0.110;2023-04-25T07:18:19;101684.38;;;8.11;55.10
74615;BME280;63121;51.458;-0.110;2023-04-25T07:20:45;101689.44;;;8.66;54.00
74615;BME280;63121;51.458;-0.110;2023-04-25T07:23:10;101693.28;;;8.33;54.20
74615;BME280;63121;51.458;-0.110;2023-04-25T07:25:36;101701.06;;;8.38;54.06
74615;BME280;63121;51.458;-0.110;2023-04-25T07:28:01;101697.31;;;8.77;54.14
74615;BME280;63121;51.458;-0.110;2023-04-25T07:30:26;101698.81;;;8.58;53.73
74615;BME280;63121;51.458;-0.110;2023-04-25T07:32:52;101698.69;;;8.50;54.01
74615;BME280;63121;51.458;-0.110;2023-04-25T07:35:17;101704.84;;;9.36;52.69
74615;BME280;63121;51.458;-0.110;2023-04-25T07:37:43;101703.72;;;9.11;53.41
74615;BME280;63121;51.458;-0.110;2023-04-25T07:40:08;101721.16;;;8.64;53.91
74615;BME280;63121;51.458;-0.110;2023-04-25T07:42:35;101717.81;;;8.69;53.99
74615;BME280;63121;51.458;-0.110;2023-04-25T07:45:01;101710.44;;;9.00;53.65
74615;BME280;63121;51.458;-0.110;2023-04-25T07:47:26;101709.69;;;9.09;53.33
74615;BME280;63121;51.458;-0.110;2023-04-25T07:49:52;101719.19;;;9.14;53.17
74615;BME280;63121;51.458;-0.110;2023-04-25T07:52:17;101716.00;;;9.37;52.33
74615;BME280;63121;51.458;-0.110;2023-04-25T07:54:43;101725.75;;;8.89;53.69
74615;BME280;63121;51.458;-0.110;2023-04-25T07:57:08;101720.44;;;9.52;53.05
74615;BME280;63121;51.458;-0.110;2023-04-25T07:59:33;101723.78;;;8.67;52.92
74615;BME280;63121;51.458;-0.110;2023-04-25T08:01:59;101727.78;;;9.16;52.59
74615;BME280;63121;51.458;-0.110;2023-04-25T08:04:25;101727.22;;;9.41;52.68
74615;BME280;63121;51.458;-0.110;2023-04-25T08:06:51;101740.63;;;9.12;52.58
74615;BME280;63121;51.458;-0.110;2023-04-25T08:09:17;101741.84;;;9.46;51.36
74615;BME280;63121;51.458;-0.110;2023-04-25T08:11:43;101742.41;;;10.08;51.95
74615;BME280;63121;51.458;-0.110;2023-04-25T08:14:08;101738.94;;;10.07;51.16
74615;BME280;63121;51.458;-0.110;2023-04-25T08:16:33;101747.22;;;9.68;50.92
74615;BME280;63121;51.458;-0.110;2023-04-25T08:18:59;101750.59;;;9.62;50.83
74615;BME280;63121;51.458;-0.110;2023-04-25T08:21:25;101748.16;;;9.74;50.74
74615;BME280;63121;51.458;-0.110;2023-04-25T08:23:52;101750.81;;;9.88;50.63
74615;BME280;63121;51.458;-0.110;2023-04-25T08:26:17;101739.84;;;10.14;48.82
74615;BME280;63121;51.458;-0.110;2023-04-25T08:28:42;101752.19;;;10.50;48.24
74615;BME280;63121;51.458;-0.110;2023-04-25T08:31:08;101749.25;;;10.07;48.75
74615;BME280;63121;51.458;-0.110;2023-04-25T08:33:33;101762.91;;;9.91;48.70
74615;BME280;63121;51.458;-0.110;2023-04-25T08:35:58;101757.31;;;10.49;47.76
74615;BME280;63121;51.458;-0.110;2023-04-25T08:38:24;101760.72;;;10.42;47.46
74615;BME280;63121;51.458;-0.110;2023-04-25T08:40:50;101758.06;;;10.29;48.22
74615;BME280;63121;51.458;-0.110;2023-04-25T08:43:20;101750.69;;;10.98;48.30
74615;BME280;63121;51.458;-0.110;2023-04-25T08:45:46;101756.34;;;10.30;47.93
74615;BME280;63121;51.458;-0.110;2023-04-25T08:48:14;101750.50;;;10.62;48.07
74615;BME280;63121;51.458;-0.110;2023-04-25T08:50:50;101750.50;;;10.58;47.19
74615;BME280;63121;51.458;-0.110;2023-04-25T08:53:22;101743.66;;;10.68;47.01
74615;BME280;63121;51.458;-0.110;2023-04-25T08:55:48;101751.31;;;10.50;48.17
74615;BME280;63121;51.458;-0.110;2023-04-25T08:58:15;101756.31;;;10.27;48.46
74615;BME280;63121;51.458;-0.110;2023-04-25T09:00:40;101752.16;;;10.46;47.67
74615;BME280;63121;51.458;-0.110;2023-04-25T09:03:10;101746.44;;;11.17;45.86
74615;BME280;63121;51.458;-0.110;2023-04-25T09:05:41;101758.41;;;10.91;45.08
74615;BME280;63121;51.458;-0.110;2023-04-25T09:08:07;101756.44;;;10.47;47.29
74615;BME280;63121;51.458;-0.110;2023-04-25T09:10:33;101749.78;;;10.86;47.00
74615;BME280;63121;51.458;-0.110;2023-04-25T09:13:25;101756.75;;;11.10;45.78
74615;BME280;63121;51.458;-0.110;2023-04-25T09:15:56;101747.06;;;10.60;45.87
74615;BME280;63121;51.458;-0.110;2023-04-25T09:18:27;101753.97;;;10.65;46.75
74615;BME280;63121;51.458;-0.110;2023-04-25T09:21:11;101750.53;;;10.68;47.35
74615;BME280;63121;51.458;-0.110;2023-04-25T09:23:49;101749.91;;;11.38;47.55
74615;BME280;63121;51.458;-0.110;2023-04-25T09:26:19;101741.41;;;12.07;45.42
74615;BME280;63121;51.458;-0.110;2023-04-25T09:28:45;101760.31;;;11.47;45.11
74615;BME280;63121;51.458;-0.110;2023-04-25T09:31:11;101749.91;;;11.24;45.10
74615;BME280;63121;51.458;-0.110;2023-04-25T09:33:37;101754.28;;;11.60;43.92
74615;BME280;63121;51.458;-0.110;2023-04-25T09:36:05;101754.22;;;11.27;45.17
74615;BME280;63121;51.458;-0.110;2023-04-25T09:38:31;101747.44;;;11.96;43.78
74615;BME280;63121;51.458;-0.110;2023-04-25T09:40:58;101760.38;;;12.09;40.96
74615;BME280;63121;51.458;-0.110;2023-04-25T09:43:24;101753.44;;;11.82;42.57
74615;BME280;63121;51.458;-0.110;2023-04-25T09:45:51;101751.75;;;11.93;42.54
74615;BME280;63121;51.458;-0.110;2023-04-25T09:48:19;101755.16;;;12.24;43.60
74615;BME280;63121;51.458;-0.110;2023-04-25T09:51:07;101750.78;;;11.40;44.14
74615;BME280;63121;51.458;-0.110;2023-04-25T09:53:33;101750.00;;;11.75;44.91
74615;BME280;63121;51.458;-0.110;2023-04-25T09:56:00;101747.41;;;12.27;41.62
74615;BME280;63121;51.458;-0.110;2023-04-25T09:58:29;101743.97;;;12.19;41.38
74615;BME280;63121;51.458;-0.110;2023-04-25T10:00:59;101747.41;;;12.19;42.24
74615;BME280;63121;51.458;-0.110;2023-04-25T10:03:25;101752.50;;;12.73;41.37
74615;BME280;63121;51.458;-0.110;2023-04-25T10:05:52;101748.09;;;12.88;40.37
74615;BME280;63121;51.458;-0.110;2023-04-25T10:08:19;101750.88;;;12.20;41.33
74615;BME280;63121;51.458;-0.110;2023-04-25T10:10:46;101734.91;;;13.38;38.40
74615;BME280;63121;51.458;-0.110;2023-04-25T10:13:12;101748.34;;;13.96;38.11
74615;BME280;63121;51.458;-0.110;2023-04-25T10:15:40;101748.56;;;13.67;38.35
74615;BME280;63121;51.458;-0.110;2023-04-25T10:18:06;101746.25;;;13.14;39.57
74615;BME280;63121;51.458;-0.110;2023-04-25T10:20:32;101747.78;;;14.51;38.14
74615;BME280;63121;51.458;-0.110;2023-04-25T10:23:04;101747.72;;;14.54;37.53
74615;BME280;63121;51.458;-0.110;2023-04-25T10:25:34;101747.19;;;14.26;35.63
74615;BME280;63121;51.458;-0.110;2023-04-25T10:28:00;101740.44;;;14.07;36.33
74615;BME280;63121;51.458;-0.110;2023-04-25T10:30:27;101754.94;;;13.07;36.70
74615;BME280;63121;51.458;-0.110;2023-04-25T10:32:54;101752.47;;;12.69;37.31
74615;BME280;63121;51.458;-0.110;2023-04-25T10:35:28;101743.75;;;12.96;36.76
74615;BME280;63121;51.458;-0.110;2023-04-25T10:38:00;101757.63;;;12.79;37.45
74615;BME280;63121;51.458;-0.110;2023-04-25T10:40:27;101747.31;;;12.64;36.81
74615;BME280;63121;51.458;-0.110;2023-04-25T10:42:53;101750.63;;;13.03;36.23
74615;BME280;63121;51.458;-0.110;2023-04-25T10:45:22;101755.72;;;13.21;35.78
74615;BME280;63121;51.458;-0.110;2023-04-25T10:47:47;101752.53;;;14.09;35.68
74615;BME280;63121;51.458;-0.110;2023-04-25T10:50:16;101751.50;;;15.03;34.62
74615;BME280;63121;51.458;-0.110;2023-04-25T10:52:41;101743.06;;;14.87;36.69
74615;BME280;63121;51.458;-0.110;2023-04-25T10:55:07;101754.22;;;15.59;33.34
74615;BME280;63121;51.458;-0.110;2023-04-25T11:00:07;101746.16;;;15.76;33.54
74615;BME280;63121;51.458;-0.110;2023-04-25T11:02:45;101741.34;;;16.04;35.68
74615;BME280;63121;51.458;-0.110;2023-04-25T11:05:23;101747.28;;;14.96;34.10
74615;BME280;63121;51.458;-0.110;2023-04-25T11:07:52;101751.22;;;14.56;33.59
74615;BME280;63121;51.458;-0.110;2023-04-25T11:10:19;101752.75;;;14.73;34.61
74615;BME280;63121;51.458;-0.110;2023-04-25T11:12:46;101749.94;;;14.91;34.11
74615;BME280;63121;51.458;-0.110;2023-04-25T11:15:12;101746.56;;;14.84;34.45
74615;BME280;63121;51.458;-0.110;2023-04-25T11:17:38;101758.94;;;13.65;34.42
74615;BME280;63121;51.458;-0.110;2023-04-25T11:20:06;101750.09;;;13.89;33.66
74615;BME280;63121;51.458;-0.110;2023-04-25T11:22:34;101748.81;;;14.33;35.83
74615;BME280;63121;51.458;-0.110;2023-04-25T11:25:05;101742.72;;;14.39;34.44
74615;BME280;63121;51.458;-0.110;2023-04-25T11:27:30;101739.59;;;14.05;34.13
74615;BME280;63121;51.458;-0.110;2023-04-25T11:29:56;101734.00;;;14.44;34.78
74615;BME280;63121;51.458;-0.110;2023-04-25T11:32:21;101737.13;;;15.41;33.75
74615;BME280;63121;51.458;-0.110;2023-04-25T11:34:47;101726.75;;;15.95;31.38
74615;BME280;63121;51.458;-0.110;2023-04-25T11:37:12;101727.13;;;15.72;31.21
74615;BME280;63121;51.458;-0.110;2023-04-25T11:39:42;101734.38;;;14.90;34.55
74615;BME280;63121;51.458;-0.110;2023-04-25T11:42:08;101736.41;;;14.63;34.57
74615;BME280;63121;51.458;-0.110;2023-04-25T11:44:33;101743.47;;;15.23;34.72
74615;BME280;63121;51.458;-0.110;2023-04-25T11:46:59;101737.09;;;15.44;34.78
74615;BME280;63121;51.458;-0.110;2023-04-25T11:49:30;101731.22;;;15.28;33.48
74615;BME280;63121;51.458;-0.110;2023-04-25T11:51:56;101735.97;;;15.00;32.89
74615;BME280;63121;51.458;-0.110;2023-04-25T11:54:22;101751.03;;;13.85;33.71
74615;BME280;63121;51.458;-0.110;2023-04-25T11:56:47;101749.78;;;14.24;33.22
74615;BME280;63121;51.458;-0.110;2023-04-25T11:59:13;101745.84;;;15.38;30.56
74615;BME280;63121;51.458;-0.110;2023-04-25T12:01:41;101739.28;;;15.73;30.63
74615;BME280;63121;51.458;-0.110;2023-04-25T12:04:15;101739.44;;;16.14;29.70
74615;BME280;63121;51.458;-0.110;2023-04-25T12:06:42;101738.28;;;15.80;29.69
74615;BME280;63121;51.458;-0.110;2023-04-25T12:09:10;101745.13;;;16.82;31.08
74615;BME280;63121;51.458;-0.110;2023-04-25T12:11:46;101736.63;;;16.70;30.96
74615;BME280;63121;51.458;-0.110;2023-04-25T12:14:20;101735.69;;;15.79;30.74
74615;BME280;63121;51.458;-0.110;2023-04-25T12:16:48;101746.22;;;16.22;32.13
74615;BME280;63121;51.458;-0.110;2023-04-25T12:19:17;101741.03;;;16.22;30.27
74615;BME280;63121;51.458;-0.110;2023-04-25T12:21:44;101742.47;;;16.39;29.07
74615;BME280;63121;51.458;-0.110;2023-04-25T12:24:18;101732.13;;;15.84;29.59
74615;BME280;63121;51.458;-0.110;2023-04-25T12:27:03;101744.31;;;15.82;29.77
74615;BME280;63121;51.458;-0.110;2023-04-25T12:29:31;101745.28;;;16.26;29.87
74615;BME280;63121;51.458;-0.110;2023-04-25T12:31:57;101750.63;;;16.20;28.78
74615;BME280;63121;51.458;-0.110;2023-04-25T12:34:23;101745.09;;;16.36;30.79
74615;BME280;63121;51.458;-0.110;2023-04-25T12:36:49;101749.13;;;16.54;30.17
74615;BME280;63121;51.458;-0.110;2023-04-25T12:39:16;101755.81;;;15.68;30.76
74615;BME280;63121;51.458;-0.110;2023-04-25T12:41:42;101753.88;;;15.23;30.18
74615;BME280;63121;51.458;-0.110;2023-04-25T12:44:07;101759.91;;;15.23;31.38
74615;BME280;63121;51.458;-0.110;2023-04-25T12:46:33;101754.59;;;15.33;31.78